Time;durP1;ratioP1;P1;durP2;ratioP2;P2;SDS_P1;SDS_P2;PMS_P1;PMS_P2;Temp;Humidity;BMP_temperature;BMP_pressure;BME280_temperature;BME280_humidity;BME280_pressure;Samples;Min_cycle;Max_cycle;Signal;HPM_P1;HPM_P2
2022/11/28 00:00:01;;;;;;;0.20;0.00;;;13.90;99.90;;;;;;21118364;28;20427;-70
2022/11/28 00:10:06;;;;;;;0.20;0.10;;;13.80;99.90;;;;;;21118371;28;20767;-70
2022/11/28 00:20:12;;;;;;;0.20;0.10;;;13.50;99.90;;;;;;21117083;28;20416;-71
2022/11/28 00:30:16;;;;;;;0.20;0.10;;;13.50;99.90;;;;;;21118312;28;20765;-70
2022/11/28 00:40:21;;;;;;;0.20;0.10;;;13.60;99.90;;;;;;21114765;28;20408;-70
2022/11/28 00:50:25;;;;;;;0.20;0.10;;;13.60;99.90;;;;;;21133946;28;20404;-70
2022/11/28 01:00:31;;;;;;;0.20;0.10;;;13.40;99.90;;;;;;21132175;28;20412;-70
2022/11/28 01:10:38;;;;;;;0.20;0.10;;;13.70;99.90;;;;;;21114069;28;20415;-71
2022/11/28 01:20:43;;;;;;;0.20;0.00;;;13.80;99.90;;;;;;21113162;28;20459;-71
2022/11/28 01:30:47;;;;;;;0.20;0.00;;;13.90;99.90;;;;;;21130718;28;20432;-72
2022/11/28 01:40:53;;;;;;;0.20;0.10;;;13.50;99.90;;;;;;21111840;28;20397;-71
2022/11/28 01:51:05;;;;;;;0.20;0.10;;;13.40;99.90;;;;;;21127721;28;20462;-71
2022/11/28 02:01:13;;;;;;;0.20;0.00;;;13.40;99.90;;;;;;21108873;28;20456;-71
2022/11/28 02:11:38;;;;;;;0.20;0.00;;;13.30;99.90;;;;;;21128369;28;20400;-69
2022/11/28 02:21:58;;;;;;;0.20;0.10;;;13.10;99.90;;;;;;21126820;28;20825;-71
2022/11/28 02:32:30;;;;;;;0.20;0.10;;;13.00;99.90;;;;;;21108314;28;20746;-71
2022/11/28 02:42:46;;;;;;;0.20;0.10;;;13.10;99.90;;;;;;21103697;28;20458;-71
2022/11/28 02:52:53;;;;;;;0.20;0.10;;;13.20;99.90;;;;;;21125001;28;20411;-70
2022/11/28 03:03:15;;;;;;;0.20;0.10;;;13.20;99.90;;;;;;21124306;28;20739;-71
2022/11/28 03:13:26;;;;;;;0.20;0.10;;;13.30;99.90;;;;;;21124490;28;20401;-71
2022/11/28 03:23:36;;;;;;;0.20;0.10;;;13.60;99.90;;;;;;21124015;28;20404;-70
2022/11/28 03:33:49;;;;;;;0.20;0.10;;;13.40;99.90;;;;;;21124203;28;20400;-71
2022/11/28 03:43:56;;;;;;;0.20;0.10;;;13.50;99.90;;;;;;21122853;28;20591;-71
2022/11/28 03:54:07;;;;;;;0.20;0.10;;;13.30;99.90;;;;;;21110943;28;20419;-70
2022/11/28 04:04:19;;;;;;;0.20;0.10;;;13.20;99.90;;;;;;21120399;28;20418;-71
2022/11/28 04:14:31;;;;;;;0.20;0.00;;;12.60;99.90;;;;;;21118595;28;20388;-70
2022/11/28 04:24:40;;;;;;;0.20;0.10;;;12.40;99.90;;;;;;21136707;28;20415;-71
2022/11/28 04:34:50;;;;;;;0.20;0.00;;;12.50;99.90;;;;;;21119130;28;20480;-70
2022/11/28 04:44:59;;;;;;;0.20;0.10;;;12.80;99.90;;;;;;21116845;28;20412;-70
2022/11/28 04:55:09;;;;;;;0.20;0.10;;;12.90;99.90;;;;;;21114566;28;20401;-70
2022/11/28 05:05:17;;;;;;;0.20;0.10;;;12.90;99.90;;;;;;21113723;28;20416;-71
2022/11/28 05:15:22;;;;;;;0.20;0.10;;;12.80;99.90;;;;;;21114141;28;20396;-71
2022/11/28 05:25:26;;;;;;;0.20;0.10;;;12.60;99.90;;;;;;21113565;28;20408;-71
2022/11/28 05:35:31;;;;;;;0.20;0.10;;;12.80;99.90;;;;;;21128692;28;20400;-71
2022/11/28 05:45:35;;;;;;;0.20;0.10;;;12.70;99.90;;;;;;21110954;28;20404;-70
2022/11/28 05:55:41;;;;;;;0.20;0.00;;;12.70;99.90;;;;;;21127913;28;20430;-70
2022/11/28 06:05:45;;;;;;;0.20;0.10;;;12.80;99.90;;;;;;21126290;28;20427;-70
2022/11/28 06:15:50;;;;;;;0.20;0.00;;;13.10;99.90;;;;;;21127434;28;20415;-70
2022/11/28 06:25:54;;;;;;;0.20;0.10;;;13.10;99.90;;;;;;21196814;27;20405;-69
2022/11/28 06:36:01;;;;;;;0.20;0.10;;;13.00;99.90;;;;;;21295293;27;20595;-69
2022/11/28 06:46:05;;;;;;;0.20;0.05;;;12.80;99.90;;;;;;21273267;28;20407;-70
2022/11/28 06:56:16;;;;;;;0.20;0.10;;;12.60;99.90;;;;;;21171588;28;20392;-71
2022/11/28 07:06:20;;;;;;;0.20;0.10;;;12.80;99.90;;;;;;21102390;28;20416;-70
2022/11/28 07:16:27;;;;;;;0.20;0.10;;;13.00;99.90;;;;;;21103882;28;20392;-70
2022/11/28 07:26:31;;;;;;;0.20;0.10;;;13.00;99.90;;;;;;21127908;28;20473;-70
2022/11/28 07:36:37;;;;;;;0.20;0.10;;;12.90;99.90;;;;;;21137260;28;20407;-69
2022/11/28 07:46:41;;;;;;;0.20;0.10;;;13.00;99.90;;;;;;21118536;28;20408;-71
2022/11/28 07:56:46;;;;;;;0.20;0.10;;;13.20;99.90;;;;;;21115608;28;20396;-72
2022/11/28 08:07:13;;;;;;;0.20;0.10;;;13.20;99.90;;;;;;21109953;28;20489;-71
2022/11/28 08:17:18;;;;;;;0.20;0.10;;;13.30;99.90;;;;;;21114867;28;20491;-70
2022/11/28 08:27:22;;;;;;;0.20;0.10;;;13.30;99.90;;;;;;21098535;28;20726;-72
2022/11/28 08:37:28;;;;;;;0.20;0.10;;;13.30;99.90;;;;;;21114433;28;20403;-71
2022/11/28 08:47:32;;;;;;;0.20;0.05;;;13.30;99.90;;;;;;21116718;28;20431;-72
2022/11/28 08:57:37;;;;;;;0.20;0.10;;;13.40;99.90;;;;;;21112585;28;20411;-74
2022/11/28 09:07:40;;;;;;;0.20;0.10;;;13.60;99.90;;;;;;21131930;28;20423;-71
2022/11/28 09:17:47;;;;;;;0.20;0.10;;;13.50;99.90;;;;;;21129683;28;20435;-71
2022/11/28 09:27:51;;;;;;;0.20;0.08;;;13.40;99.90;;;;;;21130117;28;20412;-72
2022/11/28 09:37:57;;;;;;;0.20;0.10;;;13.50;99.90;;;;;;21110304;28;20404;-72
2022/11/28 09:48:08;;;;;;;0.20;0.00;;;13.60;99.90;;;;;;21110214;28;20416;-72
2022/11/28 09:58:17;;;;;;;0.20;0.00;;;13.80;99.90;;;;;;21107918;28;20564;-72
2022/11/28 10:08:31;;;;;;;0.20;0.10;;;13.90;99.90;;;;;;21125482;28;20399;-70
2022/11/28 10:18:43;;;;;;;0.20;0.10;;;13.80;99.90;;;;;;21124645;28;20407;-69
2022/11/28 10:28:51;;;;;;;0.20;0.10;;;14.30;99.90;;;;;;21125237;28;20416;-71
2022/11/28 10:38:57;;;;;;;0.20;0.10;;;14.30;99.90;;;;;;21106989;28;20401;-70
2022/11/28 10:49:14;;;;;;;0.20;0.10;;;14.10;99.90;;;;;;21103921;28;20451;-71
2022/11/28 10:59:28;;;;;;;0.20;0.10;;;14.00;99.90;;;;;;21107055;28;20403;-69
2022/11/28 11:09:32;;;;;;;0.20;0.10;;;13.30;99.90;;;;;;21140874;28;20389;-70
2022/11/28 11:19:39;;;;;;;0.20;0.00;;;13.20;99.90;;;;;;21140477;28;20415;-70
2022/11/28 11:29:44;;;;;;;0.20;0.10;;;13.40;99.90;;;;;;21139393;28;20510;-70
2022/11/28 11:39:54;;;;;;;0.20;0.10;;;13.40;99.90;;;;;;21122010;28;20396;-71
2022/11/28 11:50:04;;;;;;;0.20;0.10;;;13.40;99.90;;;;;;21134303;28;20410;-70
2022/11/28 12:00:18;;;;;;;0.20;0.10;;;13.70;99.90;;;;;;21185325;28;20410;-73
2022/11/28 12:10:26;;;;;;;0.20;0.10;;;13.70;99.90;;;;;;21201980;28;20407;-71
2022/11/28 12:20:43;;;;;;;0.20;0.10;;;13.70;99.90;;;;;;21185011;28;20387;-74
2022/11/28 12:30:58;;;;;;;0.20;0.10;;;13.70;99.90;;;;;;21218891;28;20402;-71
2022/11/28 12:41:23;;;;;;;0.20;0.10;;;14.00;99.90;;;;;;21217458;28;20421;-71
2022/11/28 12:51:45;;;;;;;0.20;0.10;;;13.60;99.90;;;;;;21217720;28;20438;-73
2022/11/28 13:02:00;;;;;;;0.20;0.10;;;14.40;99.90;;;;;;21198027;28;20394;-73
2022/11/28 13:12:20;;;;;;;0.20;0.10;;;14.20;99.90;;;;;;21217490;28;20867;-72
2022/11/28 13:22:33;;;;;;;0.20;0.10;;;14.50;99.90;;;;;;21194457;28;20391;-72
2022/11/28 13:32:45;;;;;;;0.20;0.10;;;14.70;99.90;;;;;;21210500;28;20488;-71
2022/11/28 13:42:57;;;;;;;0.20;0.10;;;14.50;99.90;;;;;;21195726;27;20408;-71
2022/11/28 13:53:25;;;;;;;0.20;0.00;;;15.00;99.90;;;;;;21230166;27;20412;-71
2022/11/28 14:03:32;;;;;;;0.20;0.10;;;15.00;99.90;;;;;;21108514;28;20515;-72
2022/11/28 14:13:57;;;;;;;0.20;0.08;;;15.20;99.90;;;;;;21126466;28;20605;-72
2022/11/28 14:24:15;;;;;;;0.20;0.00;;;18.00;99.90;;;;;;21109479;28;20404;-71
2022/11/28 14:34:37;;;;;;;0.20;0.00;;;18.40;99.90;;;;;;21126481;28;20432;-72
2022/11/28 14:44:49;;;;;;;0.20;0.10;;;17.20;99.90;;;;;;21110918;28;20491;-72
2022/11/28 14:54:54;;;;;;;0.20;0.10;;;16.70;99.90;;;;;;21127074;28;20404;-72
2022/11/28 15:05:13;;;;;;;0.20;0.00;;;16.90;99.90;;;;;;21092666;28;20511;-74
2022/11/28 15:15:19;;;;;;;0.20;0.03;;;18.40;99.90;;;;;;21211148;28;20407;-72
2022/11/28 15:25:28;;;;;;;0.20;0.00;;;18.60;99.90;;;;;;21213499;28;20918;-73
2022/11/28 15:35:32;;;;;;;0.20;0.10;;;17.40;99.90;;;;;;21210841;28;20605;-74
2022/11/28 15:45:41;;;;;;;0.20;0.07;;;17.30;99.90;;;;;;21221676;27;20396;-73
2022/11/28 15:55:45;;;;;;;0.20;0.00;;;16.60;99.90;;;;;;21200066;27;21047;-74
2022/11/28 16:05:53;;;;;;;0.20;0.10;;;15.60;99.90;;;;;;21119258;28;20409;-71
2022/11/28 16:15:58;;;;;;;0.20;0.00;;;15.10;99.90;;;;;;21122064;28;20405;-74
2022/11/28 16:26:06;;;;;;;0.20;0.10;;;14.70;99.90;;;;;;21136860;28;20404;-73
2022/11/28 16:36:17;;;;;;;1.10;1.10;;;14.50;99.90;;;;;;21137114;28;20458;-74
2022/11/28 16:46:25;;;;;;;0.20;0.00;;;14.10;99.90;;;;;;21119270;28;20504;-72
2022/11/28 16:56:44;;;;;;;0.20;0.10;;;13.90;99.90;;;;;;21155870;28;20419;-71
2022/11/28 17:06:50;;;;;;;0.20;0.00;;;12.30;99.90;;;;;;21198636;28;20535;-73
2022/11/28 17:16:54;;;;;;;0.20;0.10;;;11.90;99.90;;;;;;21217593;28;20413;-71
2022/11/28 17:26:59;;;;;;;0.20;0.10;;;11.70;99.90;;;;;;21190507;28;20403;-72
2022/11/28 17:37:03;;;;;;;0.20;0.10;;;11.50;99.90;;;;;;21197571;28;20403;-72
2022/11/28 17:47:09;;;;;;;0.20;0.10;;;11.30;99.90;;;;;;21214077;28;20407;-72
